Time;durP1;ratioP1;P1;durP2;ratioP2;P2;SDS_P1;SDS_P2;PMS_P1;PMS_P2;Temp;Humidity;BMP_temperature;BMP_pressure;BME280_temperature;BME280_humidity;BME280_pressure;Samples;Min_cycle;Max_cycle;Signal;HPM_P1;HPM_P2
2022/03/21 00:00:48;;;;;;;11.15;2.10;;;23.60;96.60;;;;;;5090258;28;20392;-76
2022/03/21 00:03:18;;;;;;;8.50;1.90;;;23.60;95.80;;;;;;5089617;28;20372;-83
2022/03/21 00:05:46;;;;;;;5.97;1.40;;;23.50;96.00;;;;;;5070859;28;20392;-79
2022/03/21 00:08:14;;;;;;;7.22;1.73;;;23.30;96.40;;;;;;5089298;28;20383;-87
2022/03/21 00:10:42;;;;;;;9.40;1.88;;;23.40;97.20;;;;;;5089607;28;20909;-86
2022/03/21 00:13:10;;;;;;;17.20;2.20;;;23.70;96.50;;;;;;5090289;28;20459;-81
2022/03/21 00:15:37;;;;;;;15.45;2.20;;;24.30;93.60;;;;;;5091292;28;20801;-86
2022/03/21 00:18:05;;;;;;;15.90;2.63;;;24.80;92.70;;;;;;5088971;28;20762;-77
2022/03/21 00:20:33;;;;;;;7.47;1.75;;;24.70;92.70;;;;;;5089198;28;20477;-81
2022/03/21 00:23:02;;;;;;;11.70;1.80;;;24.50;92.50;;;;;;5090067;28;20444;-77
2022/03/21 00:25:29;;;;;;;6.00;1.60;;;24.20;93.70;;;;;;5090953;28;20436;-79
2022/03/21 00:27:56;;;;;;;5.53;1.40;;;24.20;93.20;;;;;;5088454;28;20739;-84
2022/03/21 00:30:23;;;;;;;6.63;1.52;;;23.90;91.70;;;;;;5073467;28;20822;-86
2022/03/21 00:32:50;;;;;;;6.32;1.50;;;23.90;91.60;;;;;;5074337;28;20442;-84
2022/03/21 00:35:18;;;;;;;5.50;1.63;;;23.90;91.70;;;;;;5092805;28;20865;-84
2022/03/21 00:37:46;;;;;;;7.43;1.45;;;23.80;91.40;;;;;;5091736;28;20365;-80
2022/03/21 00:40:15;;;;;;;11.68;1.90;;;24.10;91.60;;;;;;5091701;28;20414;-82
2022/03/21 00:42:44;;;;;;;13.70;1.63;;;24.40;90.30;;;;;;5090398;28;20377;-80
2022/03/21 00:45:19;;;;;;;8.57;1.98;;;24.60;88.60;;;;;;5095597;28;20376;-87
2022/03/21 00:47:49;;;;;;;11.60;1.85;;;24.60;88.40;;;;;;5071106;28;20473;-87
2022/03/21 00:50:17;;;;;;;8.27;1.77;;;24.60;89.80;;;;;;5090441;28;20922;-88
2022/03/21 00:52:50;;;;;;;6.72;1.63;;;24.70;86.90;;;;;;5090181;28;20408;-82
2022/03/21 00:55:20;;;;;;;6.03;1.60;;;24.50;85.80;;;;;;5097424;28;20375;-87
2022/03/21 00:57:47;;;;;;;6.90;1.70;;;24.30;88.10;;;;;;5096509;28;20464;-86
2022/03/21 01:00:18;;;;;;;11.10;1.70;;;24.10;89.80;;;;;;5036021;28;20437;-84
2022/03/21 07:49:24;;;;;;;7.75;1.90;;;26.10;67.90;;;;;;5109416;27;20859;-82
2022/03/21 07:51:51;;;;;;;6.78;1.80;;;25.30;70.20;;;;;;5112825;28;20395;-79
2022/03/21 07:54:18;;;;;;;7.93;2.08;;;24.80;72.30;;;;;;5111821;28;20371;-83
2022/03/21 07:56:46;;;;;;;7.88;1.83;;;24.40;74.20;;;;;;5108296;28;22301;-83
2022/03/21 07:59:13;;;;;;;5.57;1.90;;;24.00;76.50;;;;;;5108446;28;20379;-83
2022/03/21 08:01:39;;;;;;;6.53;1.70;;;23.70;78.90;;;;;;5107094;28;20367;-80
2022/03/21 08:04:09;;;;;;;6.80;1.73;;;23.50;81.80;;;;;;5108515;28;20390;-83
2022/03/21 08:06:36;;;;;;;6.45;1.70;;;23.30;84.30;;;;;;5108711;28;20855;-79
2022/03/21 08:09:03;;;;;;;6.78;1.90;;;23.10;88.00;;;;;;5108297;28;20400;-79
2022/03/21 08:11:30;;;;;;;7.50;1.67;;;22.90;90.80;;;;;;5108818;28;20395;-84
2022/03/21 08:13:57;;;;;;;5.00;1.77;;;22.70;91.80;;;;;;5109029;28;21253;-79
2022/03/21 08:16:23;;;;;;;6.18;1.75;;;22.60;93.10;;;;;;5108693;28;20436;-83
2022/03/21 08:18:51;;;;;;;5.95;1.63;;;22.50;94.20;;;;;;5108272;28;20938;-80
2022/03/21 08:21:20;;;;;;;5.90;1.70;;;22.50;95.00;;;;;;5108410;28;20383;-84
2022/03/21 08:23:48;;;;;;;7.05;1.90;;;22.40;95.90;;;;;;5107831;28;20421;-84
2022/03/21 08:26:16;;;;;;;6.15;1.83;;;22.30;96.90;;;;;;5106691;28;20371;-82
2022/03/21 08:28:47;;;;;;;6.63;1.80;;;22.20;97.80;;;;;;5107608;28;20396;-80
2022/03/21 08:31:14;;;;;;;8.77;1.90;;;22.10;98.50;;;;;;5108510;28;20734;-82
2022/03/21 08:33:42;;;;;;;7.00;1.80;;;22.00;99.40;;;;;;5108068;28;20430;-83
2022/03/21 08:36:11;;;;;;;9.35;1.88;;;21.90;99.90;;;;;;5108031;28;20371;-89
2022/03/21 08:38:39;;;;;;;8.55;1.90;;;21.90;99.90;;;;;;5109515;28;20460;-85
2022/03/21 08:41:06;;;;;;;5.73;1.70;;;21.80;99.90;;;;;;5110311;28;20370;-80
2022/03/21 08:43:33;;;;;;;8.20;2.00;;;21.70;99.90;;;;;;5108561;28;20395;-87
2022/03/21 08:46:00;;;;;;;7.35;1.90;;;21.60;99.90;;;;;;5114513;28;20785;-87
2022/03/21 08:51:12;;;;;;;7.40;1.90;;;21.50;99.90;;;;;;5110040;28;20470;-78
2022/03/21 08:53:39;;;;;;;6.85;2.05;;;21.40;99.90;;;;;;5110325;28;20391;-82
2022/03/21 08:56:06;;;;;;;7.68;2.15;;;21.30;99.90;;;;;;5111623;28;20384;-81
2022/03/21 08:58:33;;;;;;;7.57;2.00;;;21.30;99.90;;;;;;5109053;28;20437;-82
2022/03/21 09:01:00;;;;;;;6.55;2.00;;;21.20;99.90;;;;;;5094844;28;20375;-81
2022/03/21 09:03:27;;;;;;;9.38;1.85;;;21.20;99.90;;;;;;5094807;28;20430;-88
2022/03/21 09:05:54;;;;;;;6.40;1.90;;;21.20;99.90;;;;;;5094591;28;20365;-77
2022/03/21 09:08:21;;;;;;;5.43;1.90;;;21.30;99.90;;;;;;5095524;28;20453;-88
2022/03/21 09:10:48;;;;;;;6.65;1.90;;;21.20;99.90;;;;;;5094988;28;20467;-79
2022/03/21 09:13:16;;;;;;;5.72;1.95;;;21.10;99.90;;;;;;5095237;28;20940;-84
2022/03/21 09:15:43;;;;;;;6.45;2.00;;;21.00;99.90;;;;;;5094619;28;20384;-84
2022/03/21 09:18:10;;;;;;;7.30;2.10;;;20.90;99.90;;;;;;5093749;28;20400;-83
2022/03/21 09:20:38;;;;;;;11.53;2.03;;;20.90;99.90;;;;;;5092890;28;20688;-86
2022/03/21 09:23:05;;;;;;;8.23;2.30;;;20.90;99.90;;;;;;5093284;28;20420;-85
2022/03/21 09:25:36;;;;;;;7.03;2.10;;;20.80;99.90;;;;;;5093985;28;20763;-86
2022/03/21 09:28:03;;;;;;;7.57;1.90;;;20.70;99.90;;;;;;5093836;28;20393;-81
2022/03/21 09:30:30;;;;;;;9.68;2.20;;;20.60;99.90;;;;;;5092539;28;20394;-83
2022/03/21 09:32:57;;;;;;;8.90;2.00;;;20.60;99.90;;;;;;5095295;28;20888;-81
2022/03/21 09:35:24;;;;;;;7.07;2.35;;;20.50;99.90;;;;;;5099371;28;20392;-83
2022/03/21 09:37:51;;;;;;;8.53;2.17;;;20.50;99.90;;;;;;5091786;28;20381;-84
2022/03/21 09:40:20;;;;;;;6.63;2.15;;;20.40;99.90;;;;;;5098121;28;20414;-80
2022/03/21 09:42:47;;;;;;;6.82;2.28;;;20.40;99.90;;;;;;5096147;28;20931;-82
2022/03/21 09:45:15;;;;;;;9.43;3.23;;;20.30;99.90;;;;;;5093370;28;20423;-80
2022/03/21 09:50:35;;;;;;;7.50;2.30;;;20.40;99.90;;;;;;5094940;28;20402;-84
2022/03/21 09:53:06;;;;;;;7.38;2.00;;;20.40;99.90;;;;;;5085710;28;20393;-85
2022/03/21 09:55:33;;;;;;;7.78;2.20;;;20.30;99.90;;;;;;5087331;28;20438;-87
2022/03/21 09:58:01;;;;;;;9.20;2.47;;;20.30;99.90;;;;;;5093734;28;20471;-85
2022/03/21 10:00:28;;;;;;;13.88;6.63;;;20.30;99.90;;;;;;5095823;28;20377;-85
2022/03/21 10:02:57;;;;;;;13.45;5.97;;;20.20;99.90;;;;;;5094270;28;20726;-78
2022/03/21 10:05:44;;;;;;;8.10;2.67;;;20.10;99.90;;;;;;5094026;28;20388;-78
2022/03/21 10:08:24;;;;;;;5.17;2.20;;;20.10;99.90;;;;;;5098419;28;20410;-83
2022/03/21 10:11:05;;;;;;;10.02;3.97;;;20.00;99.90;;;;;;5096067;28;20376;-76
2022/03/21 10:13:38;;;;;;;8.07;2.50;;;20.00;99.90;;;;;;5098720;28;20437;-80
2022/03/21 10:16:09;;;;;;;10.60;4.57;;;19.90;99.90;;;;;;5097846;28;20376;-85
2022/03/21 10:18:37;;;;;;;9.10;3.80;;;19.90;99.90;;;;;;5100318;28;20381;-78
2022/03/21 10:21:16;;;;;;;11.33;5.33;;;19.80;99.90;;;;;;5101720;28;20373;-75
2022/03/21 10:23:46;;;;;;;6.43;2.25;;;19.70;99.90;;;;;;5097630;28;20415;-83
2022/03/21 10:26:31;;;;;;;5.88;2.35;;;19.70;99.90;;;;;;5099809;28;20379;-86
2022/03/21 10:29:00;;;;;;;6.67;2.00;;;19.70;99.90;;;;;;5091750;28;20400;-84
2022/03/21 10:31:48;;;;;;;6.97;2.03;;;19.60;99.90;;;;;;5090314;28;20384;-80
2022/03/21 10:34:18;;;;;;;7.75;2.10;;;19.60;99.90;;;;;;5091705;28;20389;-76
2022/03/21 10:36:59;;;;;;;7.57;2.05;;;19.50;99.90;;;;;;5089552;28;20428;-80
2022/03/21 10:39:28;;;;;;;6.00;2.20;;;19.40;99.90;;;;;;5091099;28;20380;-85
2022/03/21 10:42:01;;;;;;;7.10;2.20;;;19.30;99.90;;;;;;5091184;28;20377;-78
2022/03/21 10:44:29;;;;;;;7.25;2.25;;;19.30;99.90;;;;;;5091358;28;20512;-82
2022/03/21 10:46:59;;;;;;;8.23;2.00;;;19.30;99.90;;;;;;5091508;28;20451;-84
2022/03/21 10:49:34;;;;;;;8.48;1.83;;;19.30;99.90;;;;;;5071882;28;20404;-84
2022/03/21 10:52:03;;;;;;;8.40;2.50;;;19.20;99.90;;;;;;5090702;28;20489;-82
2022/03/21 10:54:50;;;;;;;7.00;2.58;;;19.20;99.90;;;;;;5092481;28;20384;-87
2022/03/21 10:57:32;;;;;;;7.78;2.60;;;19.20;99.90;;;;;;5083899;28;20411;-79
2022/03/21 11:00:17;;;;;;;7.78;2.90;;;19.10;99.90;;;;;;5091621;28;20368;-86
2022/03/21 11:02:55;;;;;;;7.65;2.80;;;19.20;99.90;;;;;;5091422;28;20384;-87
2022/03/21 11:05:25;;;;;;;7.53;2.20;;;19.20;99.90;;;;;;5091957;28;20383;-86
2022/03/21 11:07:53;;;;;;;8.55;3.60;;;19.10;99.90;;;;;;5091340;28;20475;-79
2022/03/21 11:10:21;;;;;;;8.00;2.50;;;19.10;99.90;;;;;;5090901;28;20471;-80
2022/03/21 11:12:49;;;;;;;6.07;2.40;;;19.10;99.90;;;;;;5091464;28;20457;-80
2022/03/21 11:15:16;;;;;;;7.17;2.50;;;19.10;99.90;;;;;;5090995;28;20380;-82
2022/03/21 11:17:45;;;;;;;8.70;2.60;;;19.00;99.90;;;;;;5091723;28;20894;-77
2022/03/21 11:20:13;;;;;;;5.43;2.00;;;19.10;99.90;;;;;;5091429;28;20396;-83
2022/03/21 11:22:42;;;;;;;5.15;2.13;;;19.10;99.90;;;;;;5090850;28;20462;-81
2022/03/21 11:25:17;;;;;;;6.72;2.33;;;19.00;99.90;;;;;;5090861;28;20404;-86
2022/03/21 11:28:05;;;;;;;5.40;2.03;;;19.00;99.90;;;;;;5091096;28;20433;-80
2022/03/21 11:30:44;;;;;;;8.15;2.40;;;18.90;99.90;;;;;;5089666;28;20463;-83
2022/03/21 11:33:35;;;;;;;5.80;2.10;;;18.80;99.90;;;;;;5091157;28;20848;-86
2022/03/21 11:36:08;;;;;;;4.88;2.10;;;18.80;99.90;;;;;;5091649;28;20398;-80
2022/03/21 11:38:41;;;;;;;7.00;2.42;;;18.70;99.90;;;;;;5090820;28;20384;-85
2022/03/21 11:41:10;;;;;;;7.95;2.60;;;18.70;99.90;;;;;;5090088;28;20398;-80
2022/03/21 11:43:38;;;;;;;7.20;2.35;;;18.70;99.90;;;;;;5090368;28;20380;-85
2022/03/21 11:46:31;;;;;;;5.10;2.38;;;18.60;99.90;;;;;;5090958;28;20414;-85
2022/03/21 11:49:22;;;;;;;6.95;2.38;;;18.50;99.90;;;;;;5085658;28;20416;-86
2022/03/21 11:51:59;;;;;;;6.70;2.35;;;18.50;99.90;;;;;;5067763;28;20412;-89
2022/03/21 11:54:28;;;;;;;8.18;2.30;;;18.50;99.90;;;;;;5082619;28;20992;-87
2022/03/21 11:56:59;;;;;;;7.82;2.30;;;18.50;99.90;;;;;;5089430;28;20380;-82
2022/03/21 11:59:35;;;;;;;6.13;2.20;;;18.40;99.90;;;;;;5090004;28;20451;-86
2022/03/21 12:02:12;;;;;;;5.82;2.30;;;18.40;99.90;;;;;;5089011;28;20384;-84
2022/03/21 12:04:43;;;;;;;9.07;2.40;;;18.40;99.90;;;;;;5089308;28;20723;-77
2022/03/21 12:07:15;;;;;;;5.93;2.30;;;18.40;99.90;;;;;;5089092;28;20380;-77
2022/03/21 12:09:47;;;;;;;9.45;2.40;;;18.40;99.90;;;;;;5088267;28;20381;-81
2022/03/21 12:12:15;;;;;;;7.63;2.10;;;18.40;99.90;;;;;;5083254;28;20421;-77
2022/03/21 12:14:46;;;;;;;7.80;2.28;;;18.40;99.90;;;;;;5089477;28;20449;-82
2022/03/21 12:17:13;;;;;;;9.25;2.42;;;18.30;99.90;;;;;;5090030;28;20395;-84
2022/03/21 12:22:28;;;;;;;5.30;2.50;;;18.30;99.90;;;;;;5088639;28;20395;-81
2022/03/21 12:25:13;;;;;;;6.70;2.67;;;18.30;99.90;;;;;;5088626;28;20384;-82
2022/03/21 12:27:53;;;;;;;6.13;2.50;;;18.30;99.90;;;;;;5089241;28;20392;-83
2022/03/21 12:30:32;;;;;;;8.93;2.70;;;18.40;99.90;;;;;;5087805;28;20377;-77
2022/03/21 12:33:13;;;;;;;7.45;2.50;;;18.40;99.90;;;;;;5088983;28;20879;-76
2022/03/21 12:35:42;;;;;;;6.95;2.50;;;18.40;99.90;;;;;;5092130;28;20377;-77
2022/03/21 12:38:10;;;;;;;7.43;2.88;;;18.40;99.90;;;;;;5092274;28;20363;-77
2022/03/21 12:40:50;;;;;;;8.73;3.17;;;18.40;99.90;;;;;;5090758;28;20388;-80
2022/03/21 12:43:19;;;;;;;7.28;2.90;;;18.40;99.90;;;;;;5091314;28;20919;-81
2022/03/21 12:45:49;;;;;;;9.88;2.67;;;18.30;99.90;;;;;;5086756;28;20392;-79
2022/03/21 12:48:17;;;;;;;7.73;2.60;;;18.30;99.90;;;;;;5091609;28;20397;-76
2022/03/21 12:50:48;;;;;;;9.23;2.85;;;18.30;99.90;;;;;;5073148;28;20370;-76
2022/03/21 12:53:19;;;;;;;9.43;2.65;;;18.30;99.90;;;;;;5080149;28;20379;-81
2022/03/21 12:56:08;;;;;;;12.30;2.78;;;18.40;99.90;;;;;;5090913;28;20733;-76
2022/03/21 12:58:37;;;;;;;13.15;2.80;;;18.50;99.90;;;;;;5091677;28;20408;-81
2022/03/21 13:01:04;;;;;;;12.10;2.55;;;18.50;99.90;;;;;;5091618;28;20871;-79
2022/03/21 13:03:32;;;;;;;8.15;2.78;;;18.40;99.90;;;;;;5091681;28;20751;-77
2022/03/21 13:11:52;;;;;;;10.45;2.80;;;18.20;99.90;;;;;;5023590;28;20383;-81
2022/03/21 13:14:21;;;;;;;10.07;2.70;;;18.20;99.90;;;;;;5029441;28;20377;-80
2022/03/21 13:16:51;;;;;;;9.93;2.92;;;18.10;99.90;;;;;;5016347;28;20411;-77
2022/03/21 13:19:27;;;;;;;9.23;3.08;;;18.10;99.90;;;;;;5011875;28;20383;-80
2022/03/21 13:22:03;;;;;;;12.25;3.08;;;18.10;99.90;;;;;;5026234;28;20404;-83
2022/03/21 13:24:49;;;;;;;12.57;3.00;;;18.00;99.90;;;;;;5030049;28;20476;-76
2022/03/21 13:27:20;;;;;;;10.03;3.00;;;17.80;99.90;;;;;;5012603;28;20816;-81
2022/03/21 13:29:52;;;;;;;8.85;3.10;;;18.60;99.90;;;;;;5023578;28;20757;-79
2022/03/21 13:32:20;;;;;;;9.75;2.78;;;17.80;99.90;;;;;;5019852;28;20387;-79
2022/03/21 13:34:51;;;;;;;11.30;3.10;;;17.80;99.90;;;;;;5009847;28;20807;-79
2022/03/21 13:37:24;;;;;;;10.68;2.97;;;17.80;99.90;;;;;;5025496;28;20393;-78
2022/03/21 13:40:03;;;;;;;10.95;2.70;;;17.70;99.90;;;;;;5020293;28;20437;-77
2022/03/21 13:42:34;;;;;;;9.73;2.78;;;17.70;99.90;;;;;;5009970;28;20375;-77
2022/03/21 13:45:05;;;;;;;12.17;2.83;;;17.60;99.90;;;;;;5009327;28;20947;-77
2022/03/21 13:47:49;;;;;;;8.65;2.95;;;17.60;99.90;;;;;;5024508;28;20940;-78
2022/03/21 13:50:16;;;;;;;10.13;3.40;;;17.60;99.90;;;;;;5082996;28;20372;-78
2022/03/21 13:52:53;;;;;;;10.27;2.92;;;17.60;99.90;;;;;;5095073;28;20462;-77
2022/03/21 13:55:36;;;;;;;8.13;3.00;;;17.60;99.90;;;;;;5097178;28;20392;-79
2022/03/21 13:58:07;;;;;;;13.07;3.40;;;17.60;99.90;;;;;;5094659;28;20396;-80
2022/03/21 14:00:38;;;;;;;8.32;2.92;;;17.50;99.90;;;;;;5093213;28;20416;-76
2022/03/21 14:03:07;;;;;;;8.98;3.20;;;17.50;99.90;;;;;;5091693;28;20391;-77
2022/03/21 14:05:41;;;;;;;10.95;2.83;;;17.50;99.90;;;;;;5090667;28;20380;-79
2022/03/21 14:08:28;;;;;;;7.38;3.00;;;17.50;99.90;;;;;;5091218;28;20779;-79
2022/03/21 14:11:05;;;;;;;8.63;3.03;;;17.40;99.90;;;;;;5088605;28;20790;-80
2022/03/21 14:13:53;;;;;;;10.10;3.10;;;17.40;99.90;;;;;;5091529;28;20811;-83
2022/03/21 14:16:20;;;;;;;15.32;3.55;;;17.40;99.90;;;;;;5092081;28;20388;-83
2022/03/21 14:18:58;;;;;;;9.32;3.03;;;17.40;99.90;;;;;;5091677;28;20744;-81
2022/03/21 14:21:29;;;;;;;9.77;3.10;;;17.30;99.90;;;;;;5091682;28;20380;-82
2022/03/21 14:23:57;;;;;;;10.43;3.00;;;17.30;99.90;;;;;;5091994;28;20416;-80
2022/03/21 14:26:30;;;;;;;9.47;2.93;;;17.30;99.90;;;;;;5090169;28;20441;-82
2022/03/21 14:28:58;;;;;;;9.65;2.70;;;17.30;99.90;;;;;;5080358;28;20439;-80
2022/03/21 14:31:25;;;;;;;8.57;2.90;;;17.30;99.90;;;;;;5091683;28;20825;-83
2022/03/21 14:33:52;;;;;;;8.73;2.80;;;17.30;99.90;;;;;;5091215;28;20415;-77
2022/03/21 14:36:20;;;;;;;7.97;2.77;;;17.20;99.90;;;;;;5091933;28;20463;-76
2022/03/21 14:38:46;;;;;;;8.80;2.90;;;17.30;99.90;;;;;;5091293;28;20383;-86
2022/03/21 14:41:14;;;;;;;9.97;2.80;;;17.30;99.90;;;;;;5086080;28;20572;-76
2022/03/21 14:43:42;;;;;;;12.15;3.20;;;17.30;99.90;;;;;;5091429;28;20380;-82
2022/03/21 14:46:09;;;;;;;11.52;3.00;;;17.30;99.90;;;;;;5091415;28;20385;-78
2022/03/21 14:48:36;;;;;;;10.07;2.80;;;17.40;99.90;;;;;;5090567;28;20508;-85
2022/03/21 14:51:06;;;;;;;12.88;3.17;;;17.40;99.90;;;;;;5090837;28;20384;-85
2022/03/21 14:53:35;;;;;;;10.98;2.92;;;17.50;99.90;;;;;;5091256;28;20475;-83
2022/03/21 14:56:03;;;;;;;10.00;3.00;;;17.50;99.90;;;;;;5090646;28;20732;-85
2022/03/21 14:58:32;;;;;;;10.82;2.90;;;17.60;99.90;;;;;;5086945;28;20872;-80
2022/03/21 15:01:00;;;;;;;16.80;3.58;;;17.50;99.90;;;;;;5090254;28;20384;-75
2022/03/21 15:03:27;;;;;;;10.63;3.58;;;17.50;99.90;;;;;;5090316;28;20450;-82
2022/03/21 15:05:54;;;;;;;14.63;3.92;;;17.40;99.90;;;;;;5090772;28;20372;-78
2022/03/21 15:08:22;;;;;;;18.92;4.03;;;17.40;99.90;;;;;;5091163;28;20895;-82
2022/03/21 15:10:49;;;;;;;16.45;3.88;;;17.40;99.90;;;;;;5089028;28;20741;-81
2022/03/21 15:13:17;;;;;;;11.93;4.00;;;17.30;99.90;;;;;;5090715;28;20880;-80
2022/03/21 15:15:46;;;;;;;15.65;3.80;;;17.20;99.90;;;;;;5090497;28;20388;-82
2022/03/21 15:18:15;;;;;;;10.98;3.50;;;17.20;99.90;;;;;;5090386;28;20864;-78
2022/03/21 15:20:44;;;;;;;12.00;3.33;;;17.10;99.90;;;;;;5090669;28;20469;-80
2022/03/21 15:23:12;;;;;;;11.38;3.55;;;17.10;99.90;;;;;;5090888;28;20876;-77
2022/03/21 15:25:39;;;;;;;12.77;3.00;;;17.00;99.90;;;;;;5090402;28;20953;-85
2022/03/21 15:28:09;;;;;;;11.85;3.10;;;17.00;99.90;;;;;;5089844;28;20400;-83
2022/03/21 15:30:37;;;;;;;10.43;3.05;;;16.90;99.90;;;;;;5090676;28;20360;-84
2022/03/21 15:33:04;;;;;;;8.60;3.00;;;16.90;99.90;;;;;;5090134;28;20880;-79
2022/03/21 15:35:31;;;;;;;11.05;3.08;;;16.90;99.90;;;;;;5090717;28;20426;-85
2022/03/21 15:43:26;;;;;;;10.48;3.10;;;16.80;99.90;;;;;;5087307;28;20392;-86
2022/03/21 15:45:54;;;;;;;10.73;3.00;;;16.80;99.90;;;;;;5090000;28;20411;-81
2022/03/21 15:48:24;;;;;;;8.10;3.13;;;16.70;99.90;;;;;;5081309;28;20397;-87
2022/03/21 15:50:52;;;;;;;9.75;3.10;;;16.70;99.90;;;;;;5069680;28;20471;-80
2022/03/21 15:53:23;;;;;;;10.93;2.90;;;16.70;99.90;;;;;;5070718;28;20465;-85
2022/03/21 15:55:53;;;;;;;8.93;3.00;;;16.70;99.90;;;;;;5065663;28;20734;-85
2022/03/21 15:58:22;;;;;;;9.05;2.90;;;16.70;99.90;;;;;;5054942;28;20437;-78
2022/03/21 16:00:49;;;;;;;7.60;2.95;;;16.70;99.90;;;;;;5066988;28;20481;-82
2022/03/21 16:03:16;;;;;;;7.22;2.97;;;16.70;99.90;;;;;;5053263;28;20858;-81
2022/03/21 16:05:43;;;;;;;9.35;3.20;;;16.60;99.90;;;;;;5050095;28;20866;-79
2022/03/21 16:08:11;;;;;;;10.48;3.53;;;16.60;99.90;;;;;;5051949;28;20399;-77
2022/03/21 16:10:38;;;;;;;10.27;3.85;;;16.60;99.90;;;;;;5065940;28;20401;-80
2022/03/21 16:13:05;;;;;;;14.68;3.78;;;16.50;99.90;;;;;;5060931;28;20394;-81
2022/03/21 16:15:32;;;;;;;12.05;3.70;;;16.60;99.90;;;;;;5057974;28;20425;-81
2022/03/21 16:18:00;;;;;;;8.98;3.85;;;16.50;99.90;;;;;;5078543;28;20384;-82
2022/03/21 16:20:27;;;;;;;11.18;3.67;;;16.50;99.90;;;;;;5069174;28;20386;-80
2022/03/21 16:22:54;;;;;;;9.17;3.80;;;16.50;99.90;;;;;;5054127;28;20372;-82
2022/03/21 16:25:22;;;;;;;9.43;3.80;;;16.50;99.90;;;;;;5060164;28;20441;-85
2022/03/21 16:27:49;;;;;;;10.50;4.05;;;16.50;99.90;;;;;;5059326;28;20951;-84
2022/03/21 16:30:16;;;;;;;9.95;3.80;;;16.50;99.90;;;;;;5065234;28;20465;-83
2022/03/21 16:32:43;;;;;;;8.95;3.92;;;16.50;99.90;;;;;;5073961;28;20382;-77
2022/03/21 16:35:11;;;;;;;10.45;4.03;;;16.50;99.90;;;;;;5072069;28;20754;-83
2022/03/21 16:37:37;;;;;;;11.97;3.60;;;16.50;99.90;;;;;;5073712;28;20378;-84
2022/03/21 16:40:07;;;;;;;9.97;3.40;;;16.60;99.90;;;;;;5071828;28;20374;-82
2022/03/21 16:42:35;;;;;;;6.60;3.30;;;16.50;99.90;;;;;;5074853;28;20781;-77
2022/03/21 16:45:05;;;;;;;10.52;3.33;;;16.50;99.90;;;;;;5076395;28;20404;-78
2022/03/21 16:47:34;;;;;;;8.38;3.53;;;16.40;99.90;;;;;;5076736;28;20397;-83
2022/03/21 16:50:03;;;;;;;12.85;3.75;;;16.40;99.90;;;;;;5094150;28;20407;-78
2022/03/21 16:52:30;;;;;;;12.38;3.55;;;16.40;99.90;;;;;;5093938;28;20872;-79
2022/03/21 16:54:57;;;;;;;9.75;3.65;;;16.40;99.90;;;;;;5093399;28;20779;-83
2022/03/21 16:57:25;;;;;;;8.10;3.30;;;16.40;99.90;;;;;;5093300;28;20381;-80
2022/03/21 16:59:52;;;;;;;11.13;3.43;;;16.50;99.90;;;;;;5093314;28;20471;-78
2022/03/21 17:02:21;;;;;;;11.13;3.63;;;16.60;99.90;;;;;;5093833;28;20728;-83
2022/03/21 17:04:48;;;;;;;11.02;3.63;;;16.50;99.90;;;;;;5093785;28;20384;-83
2022/03/21 17:07:15;;;;;;;9.35;3.70;;;16.60;99.90;;;;;;5090872;28;20384;-82
2022/03/21 17:09:42;;;;;;;9.95;3.70;;;16.60;99.90;;;;;;5093812;28;20399;-83
2022/03/21 17:12:12;;;;;;;9.80;3.83;;;16.60;99.90;;;;;;5093361;28;20377;-83
2022/03/21 17:14:41;;;;;;;10.88;4.05;;;16.60;99.90;;;;;;5092939;28;20864;-83
2022/03/21 17:17:09;;;;;;;8.50;3.65;;;16.50;99.90;;;;;;5093074;28;20392;-83
2022/03/21 17:25:12;;;;;;;9.37;3.70;;;16.40;99.90;;;;;;5093437;28;20425;-84
2022/03/21 17:27:40;;;;;;;10.52;3.60;;;16.30;99.90;;;;;;5092662;28;20392;-79
2022/03/21 17:30:08;;;;;;;9.93;3.78;;;16.30;99.90;;;;;;5092381;28;20372;-83
2022/03/21 17:32:36;;;;;;;12.07;3.85;;;16.20;99.90;;;;;;5093123;28;20377;-81
2022/03/21 17:35:05;;;;;;;14.70;4.30;;;16.20;99.90;;;;;;5092981;28;20372;-83
2022/03/21 17:37:32;;;;;;;9.23;3.95;;;16.10;99.90;;;;;;5092983;28;20387;-78
2022/03/21 17:39:59;;;;;;;10.77;3.80;;;16.00;99.90;;;;;;5057179;28;20372;-78
2022/03/21 17:42:28;;;;;;;10.00;3.75;;;16.00;99.90;;;;;;5092773;28;20384;-80
2022/03/21 17:44:56;;;;;;;11.63;3.67;;;16.00;99.90;;;;;;5092730;28;20751;-76
2022/03/21 17:47:24;;;;;;;8.95;3.65;;;16.00;99.90;;;;;;5092299;28;20408;-82
2022/03/21 17:49:51;;;;;;;10.48;3.88;;;16.00;99.90;;;;;;5092676;28;20380;-83
2022/03/21 17:52:18;;;;;;;9.20;3.85;;;15.90;99.90;;;;;;5092432;28;20437;-82
2022/03/21 17:54:45;;;;;;;9.23;3.80;;;15.90;99.90;;;;;;5092503;28;20388;-82
2022/03/21 17:57:13;;;;;;;11.40;3.85;;;15.90;99.90;;;;;;5092510;28;20388;-83
2022/03/21 17:59:40;;;;;;;11.20;3.88;;;15.90;99.90;;;;;;5092231;28;20377;-83
2022/03/21 18:02:07;;;;;;;9.60;4.22;;;15.90;99.90;;;;;;5092529;28;20380;-81
2022/03/21 18:04:34;;;;;;;10.32;4.03;;;15.90;99.90;;;;;;5092649;28;20379;-82
2022/03/21 18:07:01;;;;;;;9.23;4.10;;;15.90;99.90;;;;;;5091835;28;20470;-81
2022/03/21 18:09:28;;;;;;;9.65;3.67;;;15.80;99.90;;;;;;5092372;28;20478;-80
2022/03/21 18:11:56;;;;;;;10.00;3.80;;;15.80;99.90;;;;;;5092384;28;20373;-82
2022/03/21 18:14:25;;;;;;;12.48;3.97;;;15.80;99.90;;;;;;5092358;28;20467;-81
2022/03/21 18:16:52;;;;;;;8.88;3.60;;;15.80;99.90;;;;;;5092262;28;20369;-77
2022/03/21 18:21:53;;;;;;;13.30;3.87;;;15.70;99.90;;;;;;5091833;28;20412;-78
2022/03/21 18:24:20;;;;;;;9.95;3.88;;;15.70;99.90;;;;;;5092174;28;20852;-79
2022/03/21 18:26:47;;;;;;;10.75;3.67;;;15.80;99.90;;;;;;5091529;28;20372;-83
2022/03/21 18:29:14;;;;;;;9.88;3.90;;;15.70;99.90;;;;;;5091977;28;20494;-82
2022/03/21 18:31:41;;;;;;;11.70;4.00;;;15.70;99.90;;;;;;5091477;28;20725;-79
2022/03/21 18:34:08;;;;;;;8.93;3.90;;;15.70;99.90;;;;;;5092037;28;20376;-83
2022/03/21 18:36:36;;;;;;;8.23;3.63;;;15.60;99.90;;;;;;5091344;28;20446;-80
2022/03/21 18:39:04;;;;;;;10.03;3.63;;;15.70;99.90;;;;;;5090485;28;20380;-84
2022/03/21 18:41:32;;;;;;;10.75;3.65;;;15.60;99.90;;;;;;5090152;28;20729;-77
2022/03/21 18:44:00;;;;;;;7.60;3.47;;;15.60;99.90;;;;;;5091790;28;20456;-81
2022/03/21 18:46:27;;;;;;;9.65;3.58;;;15.60;99.90;;;;;;5091675;28;20382;-82
2022/03/21 18:48:57;;;;;;;8.60;3.50;;;15.60;99.90;;;;;;5091763;28;20430;-82
2022/03/21 18:51:24;;;;;;;9.25;3.53;;;15.60;99.90;;;;;;5093161;28;20368;-77
2022/03/21 18:53:52;;;;;;;8.07;3.67;;;15.60;99.90;;;;;;5104260;28;20381;-80
2022/03/21 18:56:20;;;;;;;9.30;3.63;;;15.50;99.90;;;;;;5103667;28;20416;-81
2022/03/21 18:58:47;;;;;;;9.73;3.70;;;15.50;99.90;;;;;;5104595;28;20364;-78
2022/03/21 19:01:15;;;;;;;11.00;3.50;;;15.50;99.90;;;;;;5103832;28;20392;-84
2022/03/21 19:03:42;;;;;;;7.78;3.83;;;15.50;99.90;;;;;;5103399;28;20450;-79
2022/03/21 19:06:11;;;;;;;9.27;3.60;;;15.50;99.90;;;;;;5103886;28;20396;-82
2022/03/21 19:08:38;;;;;;;7.93;3.30;;;15.40;99.90;;;;;;5098474;28;20401;-81
2022/03/21 19:11:05;;;;;;;10.30;3.67;;;15.40;99.90;;;;;;5091305;28;20387;-83
2022/03/21 19:13:33;;;;;;;9.25;3.88;;;15.40;99.90;;;;;;5091624;28;20794;-84
2022/03/21 19:16:00;;;;;;;10.50;3.90;;;15.40;99.90;;;;;;5091404;28;20833;-83
2022/03/21 19:18:27;;;;;;;9.88;3.50;;;15.30;99.90;;;;;;5091021;28;20794;-82
2022/03/21 19:20:54;;;;;;;9.00;3.88;;;15.30;99.90;;;;;;5091142;28;20369;-80
2022/03/21 19:23:21;;;;;;;8.90;3.95;;;15.40;99.90;;;;;;5091017;28;20438;-80
2022/03/21 19:25:48;;;;;;;8.25;3.47;;;15.40;99.90;;;;;;5090927;28;20376;-83
2022/03/21 19:28:15;;;;;;;19.38;11.95;;;15.40;99.90;;;;;;5090684;28;20392;-84
2022/03/21 19:30:43;;;;;;;6.90;3.88;;;15.30;99.90;;;;;;5090461;28;20388;-84
2022/03/21 19:33:11;;;;;;;9.27;3.60;;;15.40;99.90;;;;;;5090748;28;20436;-82
2022/03/21 19:35:39;;;;;;;11.07;5.05;;;15.30;99.90;;;;;;5090768;28;20368;-84
2022/03/21 19:38:06;;;;;;;11.45;4.20;;;15.30;99.90;;;;;;5090904;28;20455;-84
2022/03/21 19:40:35;;;;;;;10.00;4.13;;;15.30;99.90;;;;;;5090456;28;20941;-84
2022/03/21 19:43:06;;;;;;;10.23;3.58;;;15.30;99.90;;;;;;5089807;28;20385;-85
2022/03/21 19:45:35;;;;;;;7.53;3.20;;;15.30;99.90;;;;;;5090591;28;21118;-84
2022/03/21 19:48:04;;;;;;;11.27;3.70;;;15.30;99.90;;;;;;5089971;28;20420;-82
2022/03/21 19:50:34;;;;;;;10.88;3.58;;;15.30;99.90;;;;;;5089723;28;20495;-82
2022/03/21 19:53:03;;;;;;;7.43;3.40;;;15.30;99.90;;;;;;5090438;28;20368;-79
2022/03/21 19:55:34;;;;;;;10.07;3.70;;;15.30;99.90;;;;;;5090301;28;20398;-82
2022/03/21 19:58:02;;;;;;;8.40;3.90;;;15.30;99.90;;;;;;5090029;28;20737;-83
2022/03/21 20:00:30;;;;;;;16.80;4.30;;;15.30;99.90;;;;;;5089076;28;20396;-77
2022/03/21 20:02:58;;;;;;;9.70;4.30;;;15.30;99.90;;;;;;5093337;28;20430;-81
2022/03/21 20:05:25;;;;;;;9.93;3.90;;;15.30;99.90;;;;;;5092414;28;20415;-80
2022/03/21 20:07:52;;;;;;;10.65;4.18;;;15.30;99.90;;;;;;5090980;28;20392;-83
2022/03/21 20:10:20;;;;;;;13.82;5.03;;;15.40;99.90;;;;;;5090466;28;20893;-83